PWSweather.com
Personal Weather Stations
Station Observations

YeovilGB

Lat: 50.949, Lon: -2.627

Elevation: 70

Station Type: Vantage Pro

http://www.yeovil-weather.me.uk/

High Low Average
Temperature 86.2°F30.1°C 62.5°F16.9°C 74.1°F23.4°C
Dew Point 62.1°F16.7°C 46.4°F8.0°C 55.5°F13.1°C
Winds 8.1 mph 13.0 kmh Calm Calm 2.0 mph SSE3.2 kmh SSE
Wind Gusts 13.8 mph22.2 kmh -- 5.0 mph8.0 kmh
Humidity 91% 30% 56%
Pressure 30.02 in1016.6 mb 29.92 in1013.2 mb -
Precipitation 0.04 in1.0 mm - -
Hour Temp Dew Point Humidity Winds Wind Gusts Pressure Precip Precip Rate Daily Precip Total
12:00 AM 64.3°F17.9°C 61.0°F16.1°C 89% Calm Calm -- 29.92 in1013.2 mb - 0.00 in0.0 mm 0.00 in0.0 mm
12:10 AM 64.1°F17.8°C 61.1°F16.2°C 90% Calm Calm -- 29.92 in1013.2 mb - 0.00 in0.0 mm 0.00 in0.0 mm
12:20 AM 64.0°F17.8°C 61.0°F16.1°C 90% Calm Calm -- 29.92 in1013.2 mb - 0.00 in0.0 mm 0.00 in0.0 mm
12:30 AM 63.9°F17.7°C 60.9°F16.1°C 90% Calm Calm -- 29.92 in1013.2 mb - 0.00 in0.0 mm 0.00 in0.0 mm
12:40 AM 64.0°F17.8°C 61.3°F16.3°C 91% Calm Calm -- 29.92 in1013.2 mb - 0.00 in0.0 mm 0.00 in0.0 mm
12:50 AM 64.0°F17.8°C 61.3°F16.3°C 91% Calm Calm 1.2 mph1.9 kmh 29.93 in1013.5 mb - 0.00 in0.0 mm 0.00 in0.0 mm
01:00 AM 64.1°F17.8°C 61.4°F16.3°C 91% Calm Calm -- 29.93 in1013.5 mb - 0.00 in0.0 mm 0.00 in0.0 mm
01:10 AM 64.4°F18.0°C 61.4°F16.3°C 90% Calm Calm 2.3 mph3.7 kmh 29.93 in1013.5 mb - 0.00 in0.0 mm 0.00 in0.0 mm
01:20 AM 64.7°F18.2°C 61.4°F16.3°C 89% Calm Calm -- 29.93 in1013.5 mb - 0.00 in0.0 mm 0.00 in0.0 mm
01:30 AM 64.8°F18.2°C 60.8°F16.0°C 87% 1.2 mph N1.9 kmh N 4.6 mph7.4 kmh 29.93 in1013.5 mb - 0.00 in0.0 mm 0.00 in0.0 mm
01:40 AM 65.1°F18.4°C 60.5°F15.8°C 85% 2.3 mph NNW3.7 kmh NNW 5.8 mph9.3 kmh 29.93 in1013.5 mb - 0.00 in0.0 mm 0.00 in0.0 mm
01:50 AM 65.5°F18.6°C 60.5°F15.8°C 84% Calm Calm 3.5 mph5.6 kmh 29.93 in1013.5 mb - 0.00 in0.0 mm 0.00 in0.0 mm
02:00 AM 65.8°F18.8°C 60.2°F15.7°C 82% Calm Calm 1.2 mph1.9 kmh 29.93 in1013.5 mb - 0.00 in0.0 mm 0.00 in0.0 mm
02:10 AM 66.0°F18.9°C 60.0°F15.6°C 81% Calm Calm -- 29.93 in1013.5 mb - 0.00 in0.0 mm 0.00 in0.0 mm
02:20 AM 66.1°F18.9°C 59.4°F15.2°C 79% Calm Calm 2.3 mph3.7 kmh 29.93 in1013.5 mb - 0.00 in0.0 mm 0.00 in0.0 mm
02:30 AM 66.2°F19.0°C 59.1°F15.1°C 78% 1.2 mph N1.9 kmh N 5.8 mph9.3 kmh 29.93 in1013.5 mb - 0.00 in0.0 mm 0.00 in0.0 mm
02:40 AM 66.2°F19.0°C 59.1°F15.1°C 78% 2.3 mph N3.7 kmh N 6.9 mph11.1 kmh 29.93 in1013.5 mb - 0.00 in0.0 mm 0.00 in0.0 mm
02:50 AM 66.2°F19.0°C 59.5°F15.3°C 79% Calm Calm -- 29.93 in1013.5 mb - 0.00 in0.0 mm 0.00 in0.0 mm
03:00 AM 65.8°F18.8°C 59.8°F15.4°C 81% 1.2 mph NNW1.9 kmh NNW 5.8 mph9.3 kmh 29.93 in1013.5 mb - 0.00 in0.0 mm 0.00 in0.0 mm
03:10 AM 65.2°F18.4°C 59.6°F15.3°C 82% 1.2 mph N1.9 kmh N 1.2 mph1.9 kmh 29.93 in1013.5 mb - 0.00 in0.0 mm 0.00 in0.0 mm
03:20 AM 64.9°F18.3°C 59.6°F15.3°C 83% 2.3 mph NNW3.7 kmh NNW 3.5 mph5.6 kmh 29.93 in1013.5 mb - 0.02 in0.5 mm 0.02 in0.5 mm
03:30 AM 64.6°F18.1°C 59.7°F15.4°C 84% Calm Calm -- 29.93 in1013.5 mb - 0.01 in0.3 mm 0.02 in0.5 mm
03:40 AM 64.3°F17.9°C 59.7°F15.4°C 85% Calm Calm 1.2 mph1.9 kmh 29.93 in1013.5 mb - 0.00 in0.0 mm 0.02 in0.5 mm
03:50 AM 64.1°F17.8°C 59.5°F15.3°C 85% 1.2 mph N1.9 kmh N 4.6 mph7.4 kmh 29.93 in1013.5 mb - 0.00 in0.0 mm 0.02 in0.5 mm
04:00 AM 63.9°F17.7°C 59.3°F15.2°C 85% 1.2 mph N1.9 kmh N 3.5 mph5.6 kmh 29.93 in1013.5 mb - 0.00 in0.0 mm 0.02 in0.5 mm
04:10 AM 63.8°F17.7°C 58.9°F14.9°C 84% 1.2 mph NNE1.9 kmh NNE 4.6 mph7.4 kmh 29.93 in1013.5 mb - 0.00 in0.0 mm 0.02 in0.5 mm
04:20 AM 63.7°F17.6°C 59.1°F15.1°C 85% 2.3 mph N3.7 kmh N 6.9 mph11.1 kmh 29.93 in1013.5 mb - 0.01 in0.3 mm 0.03 in0.8 mm
04:30 AM 63.4°F17.4°C 58.8°F14.9°C 85% 1.2 mph N1.9 kmh N 4.6 mph7.4 kmh 29.93 in1013.5 mb - 0.00 in0.0 mm 0.03 in0.8 mm
04:40 AM 63.1°F17.3°C 58.8°F14.9°C 86% 2.3 mph N3.7 kmh N 6.9 mph11.1 kmh 29.93 in1013.5 mb - 0.00 in0.0 mm 0.03 in0.8 mm
04:50 AM 62.9°F17.2°C 58.6°F14.8°C 86% Calm Calm -- 29.93 in1013.5 mb - 0.01 in0.3 mm 0.04 in1.0 mm
05:00 AM 62.7°F17.1°C 58.5°F14.7°C 86% Calm Calm 5.8 mph9.3 kmh 29.94 in1013.9 mb - 0.01 in0.3 mm 0.04 in1.0 mm
05:10 AM 62.5°F16.9°C 58.3°F14.6°C 86% Calm Calm 3.5 mph5.6 kmh 29.94 in1013.9 mb - 0.00 in0.0 mm 0.04 in1.0 mm
05:20 AM 62.5°F16.9°C 57.9°F14.4°C 85% Calm Calm 2.3 mph3.7 kmh 29.94 in1013.9 mb - 0.00 in0.0 mm 0.04 in1.0 mm
05:30 AM 62.7°F17.1°C 58.1°F14.5°C 85% 1.2 mph N1.9 kmh N 3.5 mph5.6 kmh 29.94 in1013.9 mb - 0.00 in0.0 mm 0.04 in1.0 mm
05:40 AM 62.9°F17.2°C 58.3°F14.6°C 85% Calm Calm 1.2 mph1.9 kmh 29.94 in1013.9 mb - 0.00 in0.0 mm 0.04 in1.0 mm
05:50 AM 63.1°F17.3°C 58.5°F14.7°C 85% 2.3 mph N3.7 kmh N 4.6 mph7.4 kmh 29.95 in1014.2 mb - 0.00 in0.0 mm 0.04 in1.0 mm
06:00 AM 63.3°F17.4°C 58.4°F14.7°C 84% 3.5 mph NNW5.6 kmh NNW 5.8 mph9.3 kmh 29.94 in1013.9 mb - 0.00 in0.0 mm 0.04 in1.0 mm
06:10 AM 63.6°F17.6°C 58.3°F14.6°C 83% Calm Calm 4.6 mph7.4 kmh 29.95 in1014.2 mb - 0.00 in0.0 mm 0.04 in1.0 mm
06:20 AM 63.9°F17.7°C 58.3°F14.6°C 82% 1.2 mph N1.9 kmh N 4.6 mph7.4 kmh 29.95 in1014.2 mb - 0.00 in0.0 mm 0.04 in1.0 mm
06:30 AM 64.2°F17.9°C 58.3°F14.6°C 81% 1.2 mph N1.9 kmh N 3.5 mph5.6 kmh 29.95 in1014.2 mb - 0.00 in0.0 mm 0.04 in1.0 mm
06:40 AM 64.7°F18.2°C 58.7°F14.8°C 81% 2.3 mph N3.7 kmh N 3.5 mph5.6 kmh 29.95 in1014.2 mb - 0.00 in0.0 mm 0.04 in1.0 mm
06:50 AM 65.0°F18.3°C 58.7°F14.8°C 80% 1.2 mph N1.9 kmh N 3.5 mph5.6 kmh 29.96 in1014.6 mb - 0.00 in0.0 mm 0.04 in1.0 mm
07:00 AM 65.3°F18.5°C 58.6°F14.8°C 79% 2.3 mph N3.7 kmh N 4.6 mph7.4 kmh 29.96 in1014.6 mb - 0.00 in0.0 mm 0.04 in1.0 mm
07:10 AM 65.4°F18.6°C 58.3°F14.6°C 78% 3.5 mph N5.6 kmh N 5.8 mph9.3 kmh 29.95 in1014.2 mb - 0.00 in0.0 mm 0.04 in1.0 mm
07:20 AM 65.4°F18.6°C 58.0°F14.4°C 77% 2.3 mph N3.7 kmh N 5.8 mph9.3 kmh 29.95 in1014.2 mb - 0.00 in0.0 mm 0.04 in1.0 mm
07:30 AM 65.9°F18.8°C 58.8°F14.9°C 78% 4.6 mph N7.4 kmh N 9.2 mph14.8 kmh 29.96 in1014.6 mb - 0.00 in0.0 mm 0.04 in1.0 mm
07:40 AM 66.9°F19.4°C 59.1°F15.1°C 76% 1.2 mph NNW1.9 kmh NNW 3.5 mph5.6 kmh 29.96 in1014.6 mb - 0.00 in0.0 mm 0.04 in1.0 mm
07:50 AM 68.2°F20.1°C 59.6°F15.3°C 74% 4.6 mph N7.4 kmh N 4.6 mph7.4 kmh 29.96 in1014.6 mb - 0.00 in0.0 mm 0.04 in1.0 mm
08:00 AM 69.2°F20.7°C 59.8°F15.4°C 72% 4.6 mph N7.4 kmh N 6.9 mph11.1 kmh 29.96 in1014.6 mb - 0.00 in0.0 mm 0.04 in1.0 mm
08:10 AM 70.1°F21.2°C 59.1°F15.1°C 68% 4.6 mph N7.4 kmh N 8.1 mph13.0 kmh 29.96 in1014.6 mb - 0.00 in0.0 mm 0.04 in1.0 mm
08:20 AM 71.0°F21.7°C 59.9°F15.5°C 68% 4.6 mph NNW7.4 kmh NNW 5.8 mph9.3 kmh 29.96 in1014.6 mb - 0.00 in0.0 mm 0.04 in1.0 mm
08:30 AM 71.9°F22.2°C 59.9°F15.5°C 66% 3.5 mph N5.6 kmh N 5.8 mph9.3 kmh 29.96 in1014.6 mb - 0.00 in0.0 mm 0.04 in1.0 mm
08:40 AM 72.9°F22.7°C 61.3°F16.3°C 67% 1.2 mph NNE1.9 kmh NNE 5.8 mph9.3 kmh 29.96 in1014.6 mb - 0.00 in0.0 mm 0.04 in1.0 mm
08:50 AM 73.8°F23.2°C 60.8°F16.0°C 64% 2.3 mph NE3.7 kmh NE 4.6 mph7.4 kmh 29.96 in1014.6 mb - 0.00 in0.0 mm 0.04 in1.0 mm
09:00 AM 74.6°F23.7°C 61.2°F16.2°C 63% 2.3 mph N3.7 kmh N 5.8 mph9.3 kmh 29.96 in1014.6 mb - 0.00 in0.0 mm 0.04 in1.0 mm
09:10 AM 75.5°F24.2°C 62.0°F16.7°C 63% 1.2 mph N1.9 kmh N 6.9 mph11.1 kmh 29.96 in1014.6 mb - 0.00 in0.0 mm 0.04 in1.0 mm
09:20 AM 76.1°F24.5°C 60.7°F15.9°C 59% 5.8 mph N9.3 kmh N 9.2 mph14.8 kmh 29.96 in1014.6 mb - 0.00 in0.0 mm 0.04 in1.0 mm
09:30 AM 76.5°F24.7°C 62.1°F16.7°C 61% 3.5 mph N5.6 kmh N 4.6 mph7.4 kmh 29.96 in1014.6 mb - 0.00 in0.0 mm 0.04 in1.0 mm
09:40 AM 77.4°F25.2°C 61.5°F16.4°C 58% 2.3 mph NNW3.7 kmh NNW 3.5 mph5.6 kmh 29.96 in1014.6 mb - 0.00 in0.0 mm 0.04 in1.0 mm
09:50 AM 78.2°F25.7°C 61.2°F16.2°C 56% 2.3 mph NE3.7 kmh NE 4.6 mph7.4 kmh 29.96 in1014.6 mb - 0.00 in0.0 mm 0.04 in1.0 mm
10:00 AM 79.2°F26.2°C 59.5°F15.3°C 51% 5.8 mph NE9.3 kmh NE 11.5 mph18.5 kmh 29.96 in1014.6 mb - 0.00 in0.0 mm 0.04 in1.0 mm
10:10 AM 80.3°F26.8°C 58.2°F14.6°C 47% 5.8 mph NE9.3 kmh NE 10.4 mph16.7 kmh 29.97 in1014.9 mb - 0.00 in0.0 mm 0.04 in1.0 mm
10:20 AM 80.8°F27.1°C 56.9°F13.8°C 44% 4.6 mph NNE7.4 kmh NNE 9.2 mph14.8 kmh 29.96 in1014.6 mb - 0.00 in0.0 mm 0.04 in1.0 mm
10:30 AM 81.3°F27.4°C 56.7°F13.7°C 43% 5.8 mph NE9.3 kmh NE 8.1 mph13.0 kmh 29.96 in1014.6 mb - 0.00 in0.0 mm 0.04 in1.0 mm
10:40 AM 81.6°F27.6°C 56.9°F13.8°C 43% 5.8 mph ENE9.3 kmh ENE 11.5 mph18.5 kmh 29.97 in1014.9 mb - 0.00 in0.0 mm 0.04 in1.0 mm
10:50 AM 81.9°F27.7°C 56.6°F13.7°C 42% 5.8 mph NE9.3 kmh NE 11.5 mph18.5 kmh 29.97 in1014.9 mb - 0.00 in0.0 mm 0.04 in1.0 mm
11:00 AM 82.3°F27.9°C 57.5°F14.2°C 43% 6.9 mph NNE11.1 kmh NNE 11.5 mph18.5 kmh 29.97 in1014.9 mb - 0.00 in0.0 mm 0.04 in1.0 mm
11:10 AM 82.4°F28.0°C 54.2°F12.3°C 38% 3.5 mph NE5.6 kmh NE 11.5 mph18.5 kmh 29.97 in1014.9 mb - 0.00 in0.0 mm 0.04 in1.0 mm
11:20 AM 82.0°F27.8°C 53.9°F12.2°C 38% 8.1 mph ENE13.0 kmh ENE 13.8 mph22.2 kmh 29.97 in1014.9 mb - 0.00 in0.0 mm 0.04 in1.0 mm
11:30 AM 82.4°F28.0°C 54.3°F12.4°C 38% 3.5 mph NE5.6 kmh NE 8.1 mph13.0 kmh 29.97 in1014.9 mb - 0.00 in0.0 mm 0.04 in1.0 mm
11:40 AM 83.1°F28.4°C 54.1°F12.3°C 37% 2.3 mph ENE3.7 kmh ENE 3.5 mph5.6 kmh 29.96 in1014.6 mb - 0.00 in0.0 mm 0.04 in1.0 mm
11:50 AM 83.8°F28.8°C 54.0°F12.2°C 36% 4.6 mph ENE7.4 kmh ENE 6.9 mph11.1 kmh 29.96 in1014.6 mb - 0.00 in0.0 mm 0.04 in1.0 mm
12:00 PM 83.8°F28.8°C 54.0°F12.2°C 36% 5.8 mph NNE9.3 kmh NNE 10.4 mph16.7 kmh 29.96 in1014.6 mb - 0.00 in0.0 mm 0.04 in1.0 mm
12:10 PM 84.1°F28.9°C 53.5°F11.9°C 35% 3.5 mph ENE5.6 kmh ENE 9.2 mph14.8 kmh 29.96 in1014.6 mb - 0.00 in0.0 mm 0.04 in1.0 mm
12:20 PM 84.5°F29.2°C 54.6°F12.6°C 36% 4.6 mph NE7.4 kmh NE 4.6 mph7.4 kmh 29.96 in1014.6 mb - 0.00 in0.0 mm 0.04 in1.0 mm
12:30 PM 84.7°F29.3°C 54.8°F12.7°C 36% 2.3 mph 3.7 kmh 6.9 mph11.1 kmh 29.96 in1014.6 mb - 0.00 in0.0 mm 0.04 in1.0 mm
12:40 PM 85.4°F29.7°C 55.4°F13.0°C 36% 2.3 mph NNE3.7 kmh NNE 11.5 mph18.5 kmh 29.96 in1014.6 mb - 0.00 in0.0 mm 0.04 in1.0 mm
12:50 PM 85.7°F29.8°C 55.6°F13.1°C 36% 2.3 mph N3.7 kmh N 8.1 mph13.0 kmh 29.95 in1014.2 mb - 0.00 in0.0 mm 0.04 in1.0 mm
01:00 PM 85.6°F29.8°C 54.8°F12.7°C 35% 2.3 mph NE3.7 kmh NE 5.8 mph9.3 kmh 29.95 in1014.2 mb - 0.00 in0.0 mm 0.04 in1.0 mm
01:10 PM 85.6°F29.8°C 54.8°F12.7°C 35% 3.5 mph ENE5.6 kmh ENE 6.9 mph11.1 kmh 29.95 in1014.2 mb - 0.00 in0.0 mm 0.04 in1.0 mm
01:20 PM 85.9°F29.9°C 54.3°F12.4°C 34% 1.2 mph ENE1.9 kmh ENE 13.8 mph22.2 kmh 29.95 in1014.2 mb - 0.00 in0.0 mm 0.04 in1.0 mm
01:30 PM 85.9°F29.9°C 55.1°F12.8°C 35% 3.5 mph ENE5.6 kmh ENE 8.1 mph13.0 kmh 29.95 in1014.2 mb - 0.00 in0.0 mm 0.04 in1.0 mm
01:40 PM 85.6°F29.8°C 54.1°F12.3°C 34% 3.5 mph NE5.6 kmh NE 8.1 mph13.0 kmh 29.95 in1014.2 mb - 0.00 in0.0 mm 0.04 in1.0 mm
01:50 PM 85.8°F29.9°C 55.8°F13.2°C 36% 5.8 mph N9.3 kmh N 13.8 mph22.2 kmh 29.95 in1014.2 mb - 0.00 in0.0 mm 0.04 in1.0 mm
02:00 PM 85.7°F29.8°C 54.9°F12.7°C 35% 6.9 mph NE11.1 kmh NE 11.5 mph18.5 kmh 29.95 in1014.2 mb - 0.00 in0.0 mm 0.04 in1.0 mm
02:10 PM 86.0°F30.0°C 55.1°F12.8°C 35% 2.3 mph N3.7 kmh N 2.3 mph3.7 kmh 29.95 in1014.2 mb - 0.00 in0.0 mm 0.04 in1.0 mm
02:20 PM 86.2°F30.1°C 55.3°F12.9°C 35% 1.2 mph ENE1.9 kmh ENE 3.5 mph5.6 kmh 29.95 in1014.2 mb - 0.00 in0.0 mm 0.04 in1.0 mm
02:30 PM 86.0°F30.0°C 55.2°F12.9°C 35% 3.5 mph NNE5.6 kmh NNE 8.1 mph13.0 kmh 29.95 in1014.2 mb - 0.00 in0.0 mm 0.04 in1.0 mm
02:40 PM 86.2°F30.1°C 53.7°F12.1°C 33% 4.6 mph E7.4 kmh E 8.1 mph13.0 kmh 29.95 in1014.2 mb - 0.00 in0.0 mm 0.04 in1.0 mm
02:50 PM 85.9°F29.9°C 54.3°F12.4°C 34% 4.6 mph N7.4 kmh N 8.1 mph13.0 kmh 29.95 in1014.2 mb - 0.00 in0.0 mm 0.04 in1.0 mm
03:00 PM 85.9°F29.9°C 53.5°F11.9°C 33% 5.8 mph NE9.3 kmh NE 11.5 mph18.5 kmh 29.95 in1014.2 mb - 0.00 in0.0 mm 0.04 in1.0 mm
03:10 PM 85.7°F29.8°C 52.4°F11.3°C 32% 5.8 mph NE9.3 kmh NE 11.5 mph18.5 kmh 29.95 in1014.2 mb - 0.00 in0.0 mm 0.04 in1.0 mm
03:20 PM 85.7°F29.8°C 50.7°F10.4°C 30% 6.9 mph NNE11.1 kmh NNE 11.5 mph18.5 kmh 29.95 in1014.2 mb - 0.00 in0.0 mm 0.04 in1.0 mm
03:30 PM 85.5°F29.7°C 52.3°F11.3°C 32% 4.6 mph NE7.4 kmh NE 11.5 mph18.5 kmh 29.95 in1014.2 mb - 0.00 in0.0 mm 0.04 in1.0 mm
03:40 PM 85.2°F29.6°C 51.1°F10.6°C 31% 2.3 mph ENE3.7 kmh ENE 4.6 mph7.4 kmh 29.95 in1014.2 mb - 0.00 in0.0 mm 0.04 in1.0 mm
03:50 PM 85.2°F29.6°C 51.1°F10.6°C 31% 4.6 mph NNE7.4 kmh NNE 9.2 mph14.8 kmh 29.95 in1014.2 mb - 0.00 in0.0 mm 0.04 in1.0 mm
04:00 PM 84.9°F29.4°C 53.4°F11.9°C 34% 3.5 mph NE5.6 kmh NE 9.2 mph14.8 kmh 29.95 in1014.2 mb - 0.00 in0.0 mm 0.04 in1.0 mm
04:10 PM 84.7°F29.3°C 53.2°F11.8°C 34% 4.6 mph N7.4 kmh N 6.9 mph11.1 kmh 29.95 in1014.2 mb - 0.00 in0.0 mm 0.04 in1.0 mm
04:20 PM 84.4°F29.1°C 52.1°F11.2°C 33% 3.5 mph NNE5.6 kmh NNE 6.9 mph11.1 kmh 29.95 in1014.2 mb - 0.00 in0.0 mm 0.04 in1.0 mm
04:30 PM 84.1°F28.9°C 51.1°F10.6°C 32% 5.8 mph NE9.3 kmh NE 5.8 mph9.3 kmh 29.95 in1014.2 mb - 0.00 in0.0 mm 0.04 in1.0 mm
04:40 PM 83.9°F28.8°C 50.0°F10.0°C 31% 3.5 mph N5.6 kmh N 5.8 mph9.3 kmh 29.95 in1014.2 mb - 0.00 in0.0 mm 0.04 in1.0 mm
04:50 PM 83.7°F28.7°C 50.7°F10.4°C 32% 5.8 mph NNE9.3 kmh NNE 10.4 mph16.7 kmh 29.95 in1014.2 mb - 0.00 in0.0 mm 0.04 in1.0 mm
05:00 PM 83.6°F28.7°C 50.6°F10.3°C 32% 3.5 mph N5.6 kmh N 11.5 mph18.5 kmh 29.95 in1014.2 mb - 0.00 in0.0 mm 0.04 in1.0 mm
05:10 PM 83.6°F28.7°C 51.5°F10.8°C 33% 4.6 mph N7.4 kmh N 6.9 mph11.1 kmh 29.95 in1014.2 mb - 0.00 in0.0 mm 0.04 in1.0 mm
05:20 PM 83.5°F28.6°C 51.4°F10.8°C 33% 2.3 mph N3.7 kmh N 4.6 mph7.4 kmh 29.95 in1014.2 mb - 0.00 in0.0 mm 0.04 in1.0 mm
05:30 PM 83.4°F28.6°C 51.3°F10.7°C 33% 2.3 mph ENE3.7 kmh ENE 4.6 mph7.4 kmh 29.95 in1014.2 mb - 0.00 in0.0 mm 0.04 in1.0 mm
05:40 PM 83.3°F28.5°C 51.2°F10.7°C 33% 4.6 mph NNE7.4 kmh NNE 9.2 mph14.8 kmh 29.95 in1014.2 mb - 0.00 in0.0 mm 0.04 in1.0 mm
05:50 PM 83.0°F28.3°C 52.5°F11.4°C 35% 2.3 mph NE3.7 kmh NE 11.5 mph18.5 kmh 29.95 in1014.2 mb - 0.00 in0.0 mm 0.04 in1.0 mm
06:00 PM 82.9°F28.3°C 52.4°F11.3°C 35% 3.5 mph NNE5.6 kmh NNE 5.8 mph9.3 kmh 29.95 in1014.2 mb - 0.00 in0.0 mm 0.04 in1.0 mm
06:10 PM 82.5°F28.1°C 52.9°F11.6°C 36% 1.2 mph N1.9 kmh N 5.8 mph9.3 kmh 29.95 in1014.2 mb - 0.00 in0.0 mm 0.04 in1.0 mm
06:20 PM 82.1°F27.8°C 52.5°F11.4°C 36% 1.2 mph N1.9 kmh N 2.3 mph3.7 kmh 29.95 in1014.2 mb - 0.00 in0.0 mm 0.04 in1.0 mm
06:30 PM 81.7°F27.6°C 52.9°F11.6°C 37% 2.3 mph NE3.7 kmh NE 4.6 mph7.4 kmh 29.95 in1014.2 mb - 0.00 in0.0 mm 0.04 in1.0 mm
06:40 PM 81.4°F27.4°C 54.1°F12.3°C 39% Calm Calm 1.2 mph1.9 kmh 29.95 in1014.2 mb - 0.00 in0.0 mm 0.04 in1.0 mm
06:50 PM 80.6°F27.0°C 54.7°F12.6°C 41% Calm Calm 3.5 mph5.6 kmh 29.96 in1014.6 mb - 0.00 in0.0 mm 0.04 in1.0 mm
07:00 PM 79.8°F26.6°C 54.7°F12.6°C 42% Calm Calm 1.2 mph1.9 kmh 29.96 in1014.6 mb - 0.00 in0.0 mm 0.04 in1.0 mm
07:10 PM 78.9°F26.1°C 54.5°F12.5°C 43% Calm Calm 3.5 mph5.6 kmh 29.96 in1014.6 mb - 0.00 in0.0 mm 0.04 in1.0 mm
07:20 PM 78.2°F25.7°C 53.9°F12.2°C 43% 1.2 mph E1.9 kmh E 3.5 mph5.6 kmh 29.97 in1014.9 mb - 0.00 in0.0 mm 0.04 in1.0 mm
07:30 PM 77.6°F25.3°C 53.4°F11.9°C 43% Calm Calm -- 29.97 in1014.9 mb - 0.00 in0.0 mm 0.04 in1.0 mm
07:40 PM 77.1°F25.1°C 52.9°F11.6°C 43% Calm Calm -- 29.97 in1014.9 mb - 0.00 in0.0 mm 0.04 in1.0 mm
07:50 PM 76.6°F24.8°C 53.7°F12.1°C 45% Calm Calm -- 29.98 in1015.2 mb - 0.00 in0.0 mm 0.04 in1.0 mm
08:00 PM 76.1°F24.5°C 53.8°F12.1°C 46% Calm Calm -- 29.98 in1015.2 mb - 0.00 in0.0 mm 0.04 in1.0 mm
08:10 PM 75.5°F24.2°C 53.3°F11.8°C 46% Calm Calm -- 29.98 in1015.2 mb - 0.00 in0.0 mm 0.04 in1.0 mm
08:20 PM 75.0°F23.9°C 51.6°F10.9°C 44% Calm Calm -- 29.98 in1015.2 mb - 0.00 in0.0 mm 0.04 in1.0 mm
08:30 PM 74.6°F23.7°C 51.8°F11.0°C 45% Calm Calm -- 29.99 in1015.6 mb - 0.00 in0.0 mm 0.04 in1.0 mm
08:40 PM 74.0°F23.3°C 51.9°F11.1°C 46% Calm Calm -- 29.99 in1015.6 mb - 0.00 in0.0 mm 0.04 in1.0 mm
09:00 PM 73.0°F22.8°C 50.4°F10.2°C 45% Calm Calm 5.8 mph9.3 kmh 30.00 in1015.9 mb - 0.00 in0.0 mm 0.04 in1.0 mm
09:10 PM 72.5°F22.5°C 49.3°F9.6°C 44% 2.3 mph ENE3.7 kmh ENE 6.9 mph11.1 kmh 30.00 in1015.9 mb - 0.00 in0.0 mm 0.04 in1.0 mm
09:20 PM 72.1°F22.3°C 48.3°F9.1°C 43% 3.5 mph ENE5.6 kmh ENE 9.2 mph14.8 kmh 30.00 in1015.9 mb - 0.00 in0.0 mm 0.04 in1.0 mm
09:30 PM 71.7°F22.1°C 48.6°F9.2°C 44% Calm Calm 3.5 mph5.6 kmh 30.01 in1016.3 mb - 0.00 in0.0 mm 0.04 in1.0 mm
09:40 PM 71.2°F21.8°C 48.2°F9.0°C 44% 1.2 mph NE1.9 kmh NE 2.3 mph3.7 kmh 30.01 in1016.3 mb - 0.00 in0.0 mm 0.04 in1.0 mm
09:50 PM 70.7°F21.5°C 47.7°F8.7°C 44% 1.2 mph NE1.9 kmh NE 4.6 mph7.4 kmh 30.01 in1016.3 mb - 0.00 in0.0 mm 0.04 in1.0 mm
10:00 PM 70.1°F21.2°C 47.8°F8.8°C 45% 1.2 mph E1.9 kmh E 4.6 mph7.4 kmh 30.01 in1016.3 mb - 0.00 in0.0 mm 0.04 in1.0 mm
10:10 PM 69.6°F20.9°C 47.3°F8.5°C 45% 1.2 mph NE1.9 kmh NE 6.9 mph11.1 kmh 30.01 in1016.3 mb - 0.00 in0.0 mm 0.04 in1.0 mm
10:20 PM 69.3°F20.7°C 47.0°F8.3°C 45% 1.2 mph ENE1.9 kmh ENE 4.6 mph7.4 kmh 30.02 in1016.6 mb - 0.00 in0.0 mm 0.04 in1.0 mm
10:30 PM 68.9°F20.5°C 46.7°F8.2°C 45% Calm Calm 1.2 mph1.9 kmh 30.02 in1016.6 mb - 0.00 in0.0 mm 0.04 in1.0 mm
10:40 PM 68.5°F20.3°C 46.9°F8.3°C 46% 3.5 mph NE5.6 kmh NE 6.9 mph11.1 kmh 30.02 in1016.6 mb - 0.00 in0.0 mm 0.04 in1.0 mm
10:50 PM 68.0°F20.0°C 46.4°F8.0°C 46% Calm Calm 1.2 mph1.9 kmh 30.02 in1016.6 mb - 0.00 in0.0 mm 0.04 in1.0 mm
11:00 PM 67.5°F19.7°C 47.1°F8.4°C 48% Calm Calm -- 30.02 in1016.6 mb - 0.00 in0.0 mm 0.06 in1.5 mm
11:10 PM 66.8°F19.3°C 47.0°F8.3°C 49% Calm Calm -- 30.02 in1016.6 mb - 0.00 in0.0 mm 0.06 in1.5 mm
11:20 PM 66.4°F19.1°C 46.6°F8.1°C 49% 1.2 mph ENE1.9 kmh ENE 6.9 mph11.1 kmh 30.02 in1016.6 mb - 0.00 in0.0 mm 0.06 in1.5 mm
11:30 PM 66.0°F18.9°C 46.8°F8.2°C 50% 4.6 mph NE7.4 kmh NE 8.1 mph13.0 kmh 30.02 in1016.6 mb - 0.00 in0.0 mm 0.06 in1.5 mm
11:40 PM 65.8°F18.8°C 46.6°F8.1°C 50% Calm Calm 2.3 mph3.7 kmh 30.02 in1016.6 mb - 0.00 in0.0 mm 0.06 in1.5 mm
11:50 PM 65.6°F18.7°C 47.0°F8.3°C 51% 2.3 mph NE3.7 kmh NE 4.6 mph7.4 kmh 30.02 in1016.6 mb - 0.00 in0.0 mm 0.06 in1.5 mm